JIA5180 KHPN-KCLT
Flight info
| Callsign | JIA5180 |
|---|---|
| Flight time | 1h 32m |
| Altitude | 36000 |
| Route | BIGGY Q75 GVE AIROW CHSLY6 |
| Aircraft | CRJ7/M-SDFGIRWY/S |
Departure
| Time | 2026-04-25 23:24 |
|---|---|
| Airport | Westchester County Airport (KHPN) |
Arrival
| Time | 2026-04-26 00:56 |
|---|---|
| Airport | Charlotte Douglas International Airport (KCLT) |
| Time | Latitude | Longitude | Altitude | Speed | Heading |
|---|---|---|---|---|---|
| 2026-04-25 22:59 | 41.06836 | -73.70500 | 407 ft | 0 kts | 59° |
| 2026-04-25 23:14 | 41.06834 | -73.70505 | 407 ft | 1 kts | 59° |
| 2026-04-25 23:14 | 41.06830 | -73.70513 | 407 ft | 1 kts | 59° |
| 2026-04-25 23:15 | 41.06827 | -73.70521 | 405 ft | 1 kts | 52° |
| 2026-04-25 23:15 | 41.06822 | -73.70527 | 405 ft | 1 kts | 25° |
| 2026-04-25 23:15 | 41.06815 | -73.70529 | 407 ft | 1 kts | 357° |
| 2026-04-25 23:15 | 41.06810 | -73.70528 | 407 ft | 1 kts | 338° |
| 2026-04-25 23:16 | 41.06808 | -73.70527 | 407 ft | 0 kts | 330° |
| 2026-04-25 23:17 | 41.06809 | -73.70528 | 407 ft | 1 kts | 330° |
| 2026-04-25 23:17 | 41.06814 | -73.70532 | 407 ft | 1 kts | 330° |
| 2026-04-25 23:17 | 41.06823 | -73.70539 | 405 ft | 1 kts | 330° |
| 2026-04-25 23:17 | 41.06830 | -73.70544 | 406 ft | 1 kts | 329° |
| 2026-04-25 23:18 | 41.06833 | -73.70546 | 407 ft | 0 kts | 329° |
| 2026-04-25 23:18 | 41.06833 | -73.70547 | 407 ft | 0 kts | 329° |
| 2026-04-25 23:18 | 41.06838 | -73.70551 | 407 ft | 1 kts | 323° |
| 2026-04-25 23:18 | 41.06842 | -73.70555 | 407 ft | 0 kts | 321° |
| 2026-04-25 23:19 | 41.06847 | -73.70561 | 407 ft | 3 kts | 319° |
| 2026-04-25 23:19 | 41.06871 | -73.70588 | 408 ft | 6 kts | 322° |
| 2026-04-25 23:19 | 41.06913 | -73.70625 | 409 ft | 8 kts | 331° |
| 2026-04-25 23:19 | 41.06966 | -73.70666 | 406 ft | 9 kts | 328° |
| 2026-04-25 23:20 | 41.07030 | -73.70713 | 411 ft | 12 kts | 331° |
| 2026-04-25 23:20 | 41.07110 | -73.70774 | 415 ft | 14 kts | 332° |
| 2026-04-25 23:20 | 41.07200 | -73.70829 | 416 ft | 14 kts | 336° |
| 2026-04-25 23:20 | 41.07286 | -73.70879 | 417 ft | 13 kts | 334° |
| 2026-04-25 23:21 | 41.07362 | -73.70936 | 420 ft | 12 kts | 328° |
| 2026-04-25 23:21 | 41.07426 | -73.70986 | 422 ft | 9 kts | 330° |
| 2026-04-25 23:21 | 41.07473 | -73.71020 | 426 ft | 6 kts | 331° |
| 2026-04-25 23:21 | 41.07504 | -73.71045 | 438 ft | 4 kts | 327° |
| 2026-04-25 23:22 | 41.07532 | -73.71074 | 441 ft | 6 kts | 309° |
| 2026-04-25 23:22 | 41.07545 | -73.71144 | 441 ft | 10 kts | 277° |
| 2026-04-25 23:22 | 41.07554 | -73.71250 | 432 ft | 12 kts | 267° |
| 2026-04-25 23:23 | 41.07496 | -73.71282 | 439 ft | 0 kts | 151° |
| 2026-04-25 23:23 | 41.07264 | -73.71105 | 419 ft | 76 kts | 150° |
| 2026-04-25 23:23 | 41.06615 | -73.70608 | 402 ft | 135 kts | 149° |
| 2026-04-25 23:24 | 41.05732 | -73.69954 | 742 ft | 152 kts | 148° |
| 2026-04-25 23:24 | 41.05100 | -73.69533 | 1173 ft | 156 kts | 161° |
| 2026-04-25 23:24 | 41.03991 | -73.69617 | 1794 ft | 171 kts | 202° |
| 2026-04-25 23:24 | 41.03133 | -73.71270 | 2880 ft | 171 kts | 269° |
| 2026-04-25 23:25 | 41.03560 | -73.72715 | 3550 ft | 173 kts | 303° |
| 2026-04-25 23:25 | 41.04253 | -73.74046 | 4179 ft | 177 kts | 304° |
| 2026-04-25 23:25 | 41.04728 | -73.74929 | 4624 ft | 179 kts | 299° |
| 2026-04-25 23:25 | 41.04900 | -73.76507 | 5096 ft | 183 kts | 248° |
| 2026-04-25 23:26 | 41.04361 | -73.78089 | 5685 ft | 193 kts | 241° |
| 2026-04-25 23:26 | 41.03663 | -73.79568 | 6673 ft | 185 kts | 234° |
| 2026-04-25 23:26 | 41.02894 | -73.80939 | 7491 ft | 191 kts | 234° |
| 2026-04-25 23:26 | 41.01770 | -73.82939 | 8199 ft | 215 kts | 235° |
| 2026-04-25 23:27 | 41.00878 | -73.84590 | 8905 ft | 224 kts | 237° |
| 2026-04-25 23:27 | 40.99991 | -73.86308 | 9756 ft | 229 kts | 238° |
| 2026-04-25 23:27 | 40.99385 | -73.87491 | 10330 ft | 231 kts | 238° |
| 2026-04-25 23:27 | 40.98486 | -73.89237 | 11139 ft | 235 kts | 239° |
| 2026-04-25 23:28 | 40.97557 | -73.91044 | 11834 ft | 240 kts | 239° |
| 2026-04-25 23:28 | 40.96593 | -73.92925 | 12052 ft | 256 kts | 239° |
| 2026-04-25 23:28 | 40.95566 | -73.94925 | 12380 ft | 266 kts | 238° |
| 2026-04-25 23:28 | 40.94515 | -73.96954 | 12890 ft | 269 kts | 238° |
| 2026-04-25 23:29 | 40.93452 | -73.99011 | 13416 ft | 272 kts | 239° |
| 2026-04-25 23:29 | 40.92377 | -74.01090 | 13917 ft | 277 kts | 239° |
| 2026-04-25 23:29 | 40.91282 | -74.03215 | 14323 ft | 281 kts | 239° |
| 2026-04-25 23:29 | 40.90183 | -74.05359 | 14799 ft | 282 kts | 239° |
| 2026-04-25 23:30 | 40.89084 | -74.07519 | 15309 ft | 284 kts | 239° |
| 2026-04-25 23:30 | 40.87986 | -74.09658 | 15846 ft | 286 kts | 239° |
| 2026-04-25 23:30 | 40.86846 | -74.11852 | 16172 ft | 297 kts | 239° |
| 2026-04-25 23:30 | 40.85645 | -74.14170 | 16370 ft | 312 kts | 239° |
| 2026-04-25 23:31 | 40.84413 | -74.16545 | 16907 ft | 315 kts | 239° |
| 2026-04-25 23:31 | 40.83167 | -74.18943 | 17455 ft | 318 kts | 239° |
| 2026-04-25 23:31 | 40.81911 | -74.21358 | 18000 ft | 321 kts | 239° |
| 2026-04-25 23:31 | 40.80640 | -74.23797 | 18517 ft | 323 kts | 239° |
| 2026-04-25 23:32 | 40.79363 | -74.26249 | 19009 ft | 325 kts | 238° |
| 2026-04-25 23:32 | 40.78081 | -74.28715 | 19491 ft | 327 kts | 238° |
| 2026-04-25 23:32 | 40.76790 | -74.31191 | 19981 ft | 329 kts | 238° |
| 2026-04-25 23:32 | 40.75492 | -74.33681 | 20467 ft | 330 kts | 238° |
| 2026-04-25 23:33 | 40.74184 | -74.36184 | 20936 ft | 332 kts | 238° |
| 2026-04-25 23:33 | 40.72889 | -74.38665 | 21397 ft | 334 kts | 238° |
| 2026-04-25 23:33 | 40.71570 | -74.41188 | 21838 ft | 335 kts | 238° |
| 2026-04-25 23:33 | 40.70240 | -74.43722 | 22284 ft | 336 kts | 238° |
| 2026-04-25 23:34 | 40.68912 | -74.46263 | 22711 ft | 338 kts | 238° |
| 2026-04-25 23:34 | 40.67572 | -74.48820 | 23149 ft | 339 kts | 237° |
| 2026-04-25 23:34 | 40.66230 | -74.51381 | 23568 ft | 341 kts | 237° |
| 2026-04-25 23:34 | 40.64875 | -74.53956 | 23925 ft | 342 kts | 237° |
| 2026-04-25 23:35 | 40.63517 | -74.56533 | 24289 ft | 343 kts | 237° |
| 2026-04-25 23:35 | 40.62157 | -74.59115 | 24643 ft | 344 kts | 237° |
| 2026-04-25 23:35 | 40.60793 | -74.61701 | 24995 ft | 344 kts | 237° |
| 2026-04-25 23:35 | 40.59426 | -74.64293 | 25343 ft | 345 kts | 238° |
| 2026-04-25 23:36 | 40.58077 | -74.66854 | 25678 ft | 346 kts | 237° |
| 2026-04-25 23:36 | 40.56705 | -74.69453 | 26010 ft | 346 kts | 238° |
| 2026-04-25 23:36 | 40.55330 | -74.72056 | 26338 ft | 347 kts | 238° |
| 2026-04-25 23:36 | 40.53951 | -74.74663 | 26636 ft | 348 kts | 238° |
| 2026-04-25 23:37 | 40.52567 | -74.77278 | 26935 ft | 349 kts | 238° |
| 2026-04-25 23:37 | 40.51179 | -74.79900 | 27237 ft | 350 kts | 238° |
| 2026-04-25 23:37 | 40.49787 | -74.82527 | 27534 ft | 351 kts | 238° |
| 2026-04-25 23:37 | 40.48389 | -74.85159 | 27827 ft | 352 kts | 238° |
| 2026-04-25 23:38 | 40.46989 | -74.87797 | 28103 ft | 352 kts | 238° |
| 2026-04-25 23:38 | 40.45583 | -74.90439 | 28393 ft | 353 kts | 238° |
| 2026-04-25 23:38 | 40.44175 | -74.93085 | 28683 ft | 354 kts | 238° |
| 2026-04-25 23:38 | 40.42764 | -74.95738 | 28958 ft | 355 kts | 238° |
| 2026-04-25 23:39 | 40.41274 | -74.98335 | 29227 ft | 358 kts | 233° |
| 2026-04-25 23:39 | 40.39636 | -75.00742 | 29480 ft | 360 kts | 230° |
| 2026-04-25 23:39 | 40.37885 | -75.03103 | 29722 ft | 361 kts | 230° |
| 2026-04-25 23:39 | 40.36122 | -75.05462 | 29906 ft | 363 kts | 230° |
| 2026-04-25 23:40 | 40.34370 | -75.07852 | 30109 ft | 364 kts | 231° |
| 2026-04-25 23:40 | 40.32636 | -75.10271 | 30318 ft | 364 kts | 231° |
| 2026-04-25 23:40 | 40.30902 | -75.12698 | 30499 ft | 365 kts | 231° |
| 2026-04-25 23:40 | 40.29163 | -75.15131 | 30677 ft | 366 kts | 231° |
| 2026-04-25 23:41 | 40.27423 | -75.17568 | 30846 ft | 367 kts | 231° |
| 2026-04-25 23:41 | 40.25673 | -75.20014 | 31013 ft | 368 kts | 231° |
| 2026-04-25 23:41 | 40.23920 | -75.22460 | 31188 ft | 369 kts | 231° |
| 2026-04-25 23:41 | 40.22187 | -75.24883 | 31353 ft | 370 kts | 231° |
| 2026-04-25 23:42 | 40.20424 | -75.27340 | 31511 ft | 371 kts | 231° |
| 2026-04-25 23:42 | 40.18656 | -75.29803 | 31642 ft | 372 kts | 231° |
| 2026-04-25 23:42 | 40.16882 | -75.32274 | 31728 ft | 374 kts | 231° |
| 2026-04-25 23:42 | 40.15096 | -75.34751 | 31906 ft | 374 kts | 230° |
| 2026-04-25 23:43 | 40.13316 | -75.37224 | 32090 ft | 374 kts | 231° |
| 2026-04-25 23:43 | 40.11549 | -75.39695 | 32279 ft | 373 kts | 231° |
| 2026-04-25 23:43 | 40.09768 | -75.42168 | 32455 ft | 373 kts | 230° |
| 2026-04-25 23:43 | 40.07995 | -75.44625 | 32696 ft | 370 kts | 230° |
| 2026-04-25 23:44 | 40.06230 | -75.47067 | 32920 ft | 369 kts | 230° |
| 2026-04-25 23:44 | 40.04494 | -75.49467 | 33078 ft | 368 kts | 230° |
| 2026-04-25 23:44 | 40.02736 | -75.51900 | 33244 ft | 368 kts | 230° |
| 2026-04-25 23:44 | 40.00986 | -75.54319 | 33403 ft | 367 kts | 230° |
| 2026-04-25 23:45 | 39.99229 | -75.56744 | 33475 ft | 368 kts | 230° |
| 2026-04-25 23:45 | 39.95703 | -75.61609 | 33700 ft | 369 kts | 230° |
| 2026-04-25 23:45 | 39.93937 | -75.64035 | 33850 ft | 369 kts | 230° |
| 2026-04-25 23:46 | 39.92186 | -75.66473 | 33977 ft | 368 kts | 232° |
| 2026-04-25 23:46 | 39.90514 | -75.68987 | 34111 ft | 366 kts | 233° |
| 2026-04-25 23:46 | 39.88912 | -75.71559 | 34211 ft | 366 kts | 234° |
| 2026-04-25 23:47 | 39.85806 | -75.76593 | 34400 ft | 365 kts | 234° |
| 2026-04-25 23:47 | 39.84145 | -75.79238 | 34525 ft | 365 kts | 234° |
| 2026-04-25 23:47 | 39.82558 | -75.81800 | 34652 ft | 363 kts | 234° |
| 2026-04-25 23:48 | 39.79391 | -75.86915 | 34849 ft | 363 kts | 234° |
| 2026-04-25 23:48 | 39.76199 | -75.91991 | 35030 ft | 362 kts | 234° |
| 2026-04-25 23:49 | 39.73027 | -75.97016 | 35206 ft | 362 kts | 234° |
| 2026-04-25 23:49 | 39.69844 | -76.02070 | 35383 ft | 361 kts | 234° |
| 2026-04-25 23:50 | 39.66662 | -76.07115 | 35547 ft | 361 kts | 234° |
| 2026-04-25 23:50 | 39.63481 | -76.12144 | 35688 ft | 360 kts | 234° |
| 2026-04-25 23:51 | 39.60309 | -76.17176 | 35844 ft | 360 kts | 234° |
| 2026-04-25 23:51 | 39.57108 | -76.22158 | 35974 ft | 360 kts | 233° |
| 2026-04-25 23:52 | 39.53892 | -76.27108 | 35992 ft | 363 kts | 233° |
| 2026-04-25 23:52 | 39.50631 | -76.32131 | 35996 ft | 366 kts | 233° |
| 2026-04-25 23:53 | 39.47339 | -76.37188 | 35996 ft | 369 kts | 233° |
| 2026-04-25 23:53 | 39.43812 | -76.42077 | 35978 ft | 374 kts | 229° |
| 2026-04-25 23:54 | 39.40089 | -76.46808 | 35991 ft | 377 kts | 229° |
| 2026-04-25 23:54 | 39.36365 | -76.51606 | 36020 ft | 379 kts | 229° |
| 2026-04-25 23:55 | 39.32668 | -76.56432 | 36010 ft | 382 kts | 229° |
| 2026-04-25 23:55 | 39.28914 | -76.61325 | 35978 ft | 385 kts | 229° |
| 2026-04-25 23:56 | 39.25131 | -76.66243 | 35962 ft | 387 kts | 229° |
| 2026-04-25 23:56 | 39.21327 | -76.71188 | 35972 ft | 389 kts | 229° |
| 2026-04-25 23:57 | 39.17497 | -76.76152 | 35971 ft | 392 kts | 229° |
| 2026-04-25 23:57 | 39.13668 | -76.81112 | 36004 ft | 394 kts | 229° |
| 2026-04-25 23:58 | 39.09789 | -76.86125 | 36000 ft | 397 kts | 229° |
| 2026-04-25 23:58 | 39.05887 | -76.91178 | 35970 ft | 399 kts | 229° |
| 2026-04-25 23:59 | 39.01954 | -76.96231 | 35979 ft | 400 kts | 228° |
| 2026-04-25 23:59 | 38.98015 | -77.01290 | 35980 ft | 400 kts | 229° |
| 2026-04-26 00:00 | 38.94096 | -77.06361 | 35956 ft | 400 kts | 229° |
| 2026-04-26 00:00 | 38.90154 | -77.11414 | 35961 ft | 400 kts | 229° |
| 2026-04-26 00:01 | 38.86247 | -77.16424 | 35948 ft | 400 kts | 229° |
| 2026-04-26 00:01 | 38.82298 | -77.21483 | 35916 ft | 401 kts | 229° |
| 2026-04-26 00:02 | 38.78354 | -77.26534 | 35921 ft | 401 kts | 228° |
| 2026-04-26 00:02 | 38.74393 | -77.31571 | 35922 ft | 401 kts | 228° |
| 2026-04-26 00:03 | 38.70369 | -77.36521 | 35962 ft | 402 kts | 226° |
| 2026-04-26 00:03 | 38.66258 | -77.41293 | 35945 ft | 401 kts | 225° |
| 2026-04-26 00:04 | 38.62114 | -77.46079 | 35962 ft | 401 kts | 225° |
| 2026-04-26 00:04 | 38.57972 | -77.50848 | 35950 ft | 401 kts | 225° |
| 2026-04-26 00:05 | 38.53834 | -77.55611 | 35949 ft | 400 kts | 225° |
| 2026-04-26 00:05 | 38.49697 | -77.60366 | 35960 ft | 400 kts | 225° |
| 2026-04-26 00:06 | 38.45586 | -77.65086 | 35935 ft | 400 kts | 225° |
| 2026-04-26 00:06 | 38.41452 | -77.69823 | 35947 ft | 400 kts | 225° |
| 2026-04-26 00:07 | 38.37311 | -77.74555 | 35946 ft | 400 kts | 225° |
| 2026-04-26 00:07 | 38.33170 | -77.79283 | 35943 ft | 400 kts | 225° |
| 2026-04-26 00:08 | 38.29024 | -77.84009 | 35934 ft | 400 kts | 225° |
| 2026-04-26 00:08 | 38.24904 | -77.88699 | 35924 ft | 400 kts | 225° |
| 2026-04-26 00:09 | 38.20758 | -77.93409 | 35936 ft | 400 kts | 225° |
| 2026-04-26 00:09 | 38.16604 | -77.98120 | 35951 ft | 400 kts | 225° |
| 2026-04-26 00:10 | 38.12445 | -78.02830 | 35926 ft | 401 kts | 225° |
| 2026-04-26 00:10 | 38.08313 | -78.07507 | 35922 ft | 401 kts | 225° |
| 2026-04-26 00:11 | 38.04150 | -78.12207 | 35904 ft | 400 kts | 225° |
| 2026-04-26 00:11 | 38.00083 | -78.17012 | 35918 ft | 399 kts | 229° |
| 2026-04-26 00:12 | 37.96403 | -78.22252 | 35919 ft | 398 kts | 231° |
| 2026-04-26 00:12 | 37.92817 | -78.27525 | 35923 ft | 398 kts | 231° |
| 2026-04-26 00:13 | 37.89140 | -78.32766 | 35922 ft | 398 kts | 231° |
| 2026-04-26 00:13 | 37.85449 | -78.38003 | 35923 ft | 399 kts | 230° |
| 2026-04-26 00:14 | 37.81755 | -78.43241 | 35922 ft | 399 kts | 230° |
| 2026-04-26 00:14 | 37.78078 | -78.48442 | 35921 ft | 399 kts | 230° |
| 2026-04-26 00:15 | 37.74372 | -78.53677 | 35922 ft | 400 kts | 230° |
| 2026-04-26 00:15 | 37.70678 | -78.58886 | 35916 ft | 400 kts | 230° |
| 2026-04-26 00:16 | 37.66960 | -78.64118 | 35916 ft | 400 kts | 230° |
| 2026-04-26 00:16 | 37.63241 | -78.69346 | 35908 ft | 401 kts | 230° |
| 2026-04-26 00:17 | 37.59542 | -78.74536 | 35913 ft | 401 kts | 230° |
| 2026-04-26 00:17 | 37.55812 | -78.79761 | 35912 ft | 401 kts | 230° |
| 2026-04-26 00:18 | 37.52077 | -78.84985 | 35914 ft | 401 kts | 230° |
| 2026-04-26 00:18 | 37.48337 | -78.90209 | 35908 ft | 401 kts | 230° |
| 2026-04-26 00:19 | 37.44601 | -78.95416 | 35942 ft | 402 kts | 230° |
| 2026-04-26 00:19 | 37.40867 | -79.00608 | 35938 ft | 403 kts | 230° |
| 2026-04-26 00:20 | 37.37100 | -79.05849 | 35933 ft | 404 kts | 230° |
| 2026-04-26 00:20 | 37.33323 | -79.11091 | 35913 ft | 405 kts | 230° |
| 2026-04-26 00:21 | 37.29543 | -79.16325 | 35905 ft | 405 kts | 230° |
| 2026-04-26 00:21 | 37.25713 | -79.21499 | 35904 ft | 406 kts | 225° |
| 2026-04-26 00:22 | 37.21395 | -79.26016 | 35889 ft | 408 kts | 221° |
| 2026-04-26 00:22 | 37.16781 | -79.30167 | 35904 ft | 409 kts | 219° |
| 2026-04-26 00:23 | 37.12124 | -79.34257 | 35908 ft | 409 kts | 219° |
| 2026-04-26 00:23 | 37.07497 | -79.38397 | 35905 ft | 409 kts | 219° |
| 2026-04-26 00:24 | 37.02904 | -79.42515 | 35899 ft | 409 kts | 219° |
| 2026-04-26 00:24 | 36.98253 | -79.46631 | 35895 ft | 410 kts | 218° |
| 2026-04-26 00:25 | 36.93524 | -79.50634 | 35898 ft | 410 kts | 218° |
| 2026-04-26 00:25 | 36.88794 | -79.54626 | 35909 ft | 411 kts | 218° |
| 2026-04-26 00:26 | 36.84090 | -79.58591 | 35898 ft | 411 kts | 218° |
| 2026-04-26 00:26 | 36.79408 | -79.62538 | 35904 ft | 411 kts | 218° |
| 2026-04-26 00:27 | 36.74594 | -79.66550 | 35894 ft | 411 kts | 218° |
| 2026-04-26 00:27 | 36.69851 | -79.70530 | 35914 ft | 411 kts | 218° |
| 2026-04-26 00:28 | 36.65100 | -79.74501 | 35924 ft | 411 kts | 218° |
| 2026-04-26 00:28 | 36.60375 | -79.78446 | 35929 ft | 412 kts | 218° |
| 2026-04-26 00:29 | 36.55599 | -79.82429 | 35555 ft | 417 kts | 217° |
| 2026-04-26 00:29 | 36.53184 | -79.84437 | 35143 ft | 418 kts | 217° |
| 2026-04-26 00:29 | 36.50767 | -79.86452 | 34734 ft | 419 kts | 217° |
| 2026-04-26 00:29 | 36.48350 | -79.88470 | 34334 ft | 418 kts | 216° |
| 2026-04-26 00:30 | 36.45960 | -79.90442 | 33936 ft | 417 kts | 216° |
| 2026-04-26 00:30 | 36.43550 | -79.92444 | 33487 ft | 417 kts | 216° |
| 2026-04-26 00:30 | 36.41139 | -79.94446 | 33037 ft | 417 kts | 216° |
| 2026-04-26 00:30 | 36.38724 | -79.96446 | 32598 ft | 417 kts | 216° |
| 2026-04-26 00:31 | 36.36328 | -79.98431 | 32168 ft | 418 kts | 216° |
| 2026-04-26 00:31 | 36.33890 | -80.00457 | 31740 ft | 419 kts | 217° |
| 2026-04-26 00:31 | 36.31457 | -80.02462 | 31303 ft | 420 kts | 216° |
| 2026-04-26 00:31 | 36.29017 | -80.04463 | 30889 ft | 421 kts | 216° |
| 2026-04-26 00:32 | 36.26574 | -80.06479 | 30483 ft | 423 kts | 217° |
| 2026-04-26 00:32 | 36.24122 | -80.08506 | 30085 ft | 424 kts | 217° |
| 2026-04-26 00:32 | 36.19257 | -80.12509 | 29181 ft | 421 kts | 216° |
| 2026-04-26 00:33 | 36.16824 | -80.14514 | 28724 ft | 420 kts | 216° |
| 2026-04-26 00:33 | 36.14392 | -80.16508 | 28275 ft | 419 kts | 216° |
| 2026-04-26 00:33 | 36.11969 | -80.18503 | 27834 ft | 417 kts | 216° |
| 2026-04-26 00:33 | 36.09563 | -80.20472 | 27345 ft | 413 kts | 216° |
| 2026-04-26 00:34 | 36.07187 | -80.22416 | 26843 ft | 407 kts | 216° |
| 2026-04-26 00:34 | 36.04851 | -80.24332 | 26348 ft | 399 kts | 216° |
| 2026-04-26 00:34 | 36.02564 | -80.26208 | 25861 ft | 391 kts | 216° |
| 2026-04-26 00:34 | 36.00371 | -80.28009 | 25388 ft | 385 kts | 216° |
| 2026-04-26 00:35 | 35.98099 | -80.29867 | 24903 ft | 379 kts | 216° |
| 2026-04-26 00:35 | 35.95942 | -80.31623 | 24445 ft | 374 kts | 216° |
| 2026-04-26 00:35 | 35.93784 | -80.33381 | 23984 ft | 370 kts | 216° |
| 2026-04-26 00:35 | 35.91643 | -80.35131 | 23546 ft | 368 kts | 216° |
| 2026-04-26 00:36 | 35.89516 | -80.36867 | 23011 ft | 365 kts | 216° |
| 2026-04-26 00:36 | 35.87405 | -80.38592 | 22486 ft | 363 kts | 216° |
| 2026-04-26 00:36 | 35.85307 | -80.40295 | 21965 ft | 359 kts | 216° |
| 2026-04-26 00:36 | 35.83231 | -80.41977 | 21472 ft | 355 kts | 216° |
| 2026-04-26 00:37 | 35.81172 | -80.43613 | 20969 ft | 348 kts | 215° |
| 2026-04-26 00:37 | 35.79161 | -80.45206 | 20475 ft | 340 kts | 215° |
| 2026-04-26 00:37 | 35.77194 | -80.46765 | 19988 ft | 332 kts | 215° |
| 2026-04-26 00:37 | 35.75300 | -80.48261 | 19515 ft | 324 kts | 215° |
| 2026-04-26 00:38 | 35.73424 | -80.49746 | 19039 ft | 317 kts | 215° |
| 2026-04-26 00:38 | 35.71583 | -80.51202 | 18576 ft | 312 kts | 215° |
| 2026-04-26 00:38 | 35.69774 | -80.52633 | 18101 ft | 307 kts | 214° |
| 2026-04-26 00:38 | 35.67980 | -80.54015 | 17575 ft | 302 kts | 214° |
| 2026-04-26 00:39 | 35.66201 | -80.55364 | 17055 ft | 299 kts | 214° |
| 2026-04-26 00:39 | 35.64436 | -80.56708 | 16542 ft | 297 kts | 214° |
| 2026-04-26 00:39 | 35.62689 | -80.58034 | 16042 ft | 294 kts | 214° |
| 2026-04-26 00:39 | 35.60955 | -80.59352 | 15549 ft | 292 kts | 213° |
| 2026-04-26 00:40 | 35.59237 | -80.60653 | 15054 ft | 289 kts | 213° |
| 2026-04-26 00:40 | 35.57554 | -80.61929 | 14590 ft | 287 kts | 213° |
| 2026-04-26 00:40 | 35.55862 | -80.63216 | 14130 ft | 285 kts | 213° |
| 2026-04-26 00:40 | 35.54183 | -80.64488 | 13660 ft | 283 kts | 213° |
| 2026-04-26 00:41 | 35.52511 | -80.65734 | 13138 ft | 280 kts | 213° |
| 2026-04-26 00:41 | 35.50847 | -80.66971 | 12625 ft | 278 kts | 212° |
| 2026-04-26 00:41 | 35.49201 | -80.68199 | 12125 ft | 275 kts | 212° |
| 2026-04-26 00:41 | 35.47571 | -80.69412 | 11622 ft | 273 kts | 212° |
| 2026-04-26 00:42 | 35.45955 | -80.70617 | 11139 ft | 271 kts | 212° |
| 2026-04-26 00:42 | 35.44351 | -80.71811 | 10668 ft | 269 kts | 212° |
| 2026-04-26 00:42 | 35.42792 | -80.72977 | 10336 ft | 262 kts | 212° |
| 2026-04-26 00:42 | 35.41268 | -80.74109 | 10175 ft | 250 kts | 212° |
| 2026-04-26 00:43 | 35.39819 | -80.75169 | 10096 ft | 236 kts | 212° |
| 2026-04-26 00:43 | 35.38432 | -80.76174 | 10061 ft | 229 kts | 211° |
| 2026-04-26 00:43 | 35.37065 | -80.77170 | 10044 ft | 228 kts | 212° |
| 2026-04-26 00:43 | 35.35714 | -80.78168 | 10040 ft | 226 kts | 212° |
| 2026-04-26 00:44 | 35.34379 | -80.79160 | 10050 ft | 223 kts | 212° |
| 2026-04-26 00:44 | 35.33063 | -80.80146 | 10117 ft | 214 kts | 212° |
| 2026-04-26 00:44 | 35.31825 | -80.81064 | 10116 ft | 203 kts | 212° |
| 2026-04-26 00:44 | 35.30627 | -80.81952 | 10091 ft | 209 kts | 212° |
| 2026-04-26 00:45 | 35.29348 | -80.82900 | 10057 ft | 219 kts | 212° |
| 2026-04-26 00:45 | 35.27915 | -80.83573 | 10037 ft | 227 kts | 189° |
| 2026-04-26 00:45 | 35.26317 | -80.83643 | 10035 ft | 233 kts | 183° |
| 2026-04-26 00:45 | 35.24683 | -80.83542 | 10034 ft | 236 kts | 179° |
| 2026-04-26 00:46 | 35.23050 | -80.83361 | 10017 ft | 236 kts | 179° |
| 2026-04-26 00:46 | 35.21405 | -80.83173 | 9599 ft | 236 kts | 179° |
| 2026-04-26 00:46 | 35.19801 | -80.83005 | 9090 ft | 227 kts | 180° |
| 2026-04-26 00:46 | 35.18278 | -80.82873 | 8586 ft | 220 kts | 180° |
| 2026-04-26 00:47 | 35.16775 | -80.82746 | 8079 ft | 213 kts | 180° |
| 2026-04-26 00:47 | 35.15310 | -80.82623 | 7571 ft | 206 kts | 180° |
| 2026-04-26 00:47 | 35.13907 | -80.82505 | 7073 ft | 199 kts | 180° |
| 2026-04-26 00:47 | 35.12534 | -80.82395 | 6575 ft | 198 kts | 180° |
| 2026-04-26 00:48 | 35.11150 | -80.82281 | 6071 ft | 200 kts | 180° |
| 2026-04-26 00:48 | 35.09812 | -80.82165 | 5602 ft | 187 kts | 180° |
| 2026-04-26 00:48 | 35.08538 | -80.82004 | 5113 ft | 183 kts | 172° |
| 2026-04-26 00:48 | 35.07283 | -80.81749 | 4610 ft | 186 kts | 178° |
| 2026-04-26 00:49 | 35.05994 | -80.81615 | 4277 ft | 183 kts | 179° |
| 2026-04-26 00:49 | 35.04738 | -80.81514 | 4134 ft | 184 kts | 180° |
| 2026-04-26 00:49 | 35.03465 | -80.81420 | 4063 ft | 183 kts | 180° |
| 2026-04-26 00:49 | 35.02202 | -80.81335 | 4030 ft | 181 kts | 180° |
| 2026-04-26 00:50 | 35.00949 | -80.81301 | 4004 ft | 178 kts | 191° |
| 2026-04-26 00:50 | 35.00007 | -80.82109 | 3962 ft | 167 kts | 244° |
| 2026-04-26 00:50 | 34.99748 | -80.83431 | 3996 ft | 156 kts | 260° |
| 2026-04-26 00:50 | 34.99967 | -80.84666 | 3974 ft | 152 kts | 303° |
| 2026-04-26 00:51 | 35.00740 | -80.85534 | 4000 ft | 152 kts | 314° |
| 2026-04-26 00:51 | 35.01518 | -80.86403 | 4029 ft | 155 kts | 314° |
| 2026-04-26 00:51 | 35.02328 | -80.87297 | 4022 ft | 158 kts | 314° |
| 2026-04-26 00:51 | 35.03155 | -80.88198 | 4020 ft | 160 kts | 315° |
| 2026-04-26 00:52 | 35.03992 | -80.89104 | 4015 ft | 161 kts | 315° |
| 2026-04-26 00:52 | 35.04886 | -80.89942 | 4043 ft | 164 kts | 322° |
| 2026-04-26 00:52 | 35.05842 | -80.90704 | 4029 ft | 163 kts | 324° |
| 2026-04-26 00:52 | 35.06792 | -80.91421 | 4031 ft | 159 kts | 324° |
| 2026-04-26 00:53 | 35.07841 | -80.91866 | 4015 ft | 160 kts | 340° |
| 2026-04-26 00:53 | 35.08886 | -80.92260 | 3964 ft | 152 kts | 325° |
| 2026-04-26 00:53 | 35.09648 | -80.93057 | 3912 ft | 149 kts | 320° |
| 2026-04-26 00:53 | 35.10675 | -80.93392 | 3557 ft | 160 kts | 354° |
| 2026-04-26 00:54 | 35.11771 | -80.93194 | 3139 ft | 156 kts | 8° |
| 2026-04-26 00:54 | 35.12793 | -80.92913 | 2669 ft | 146 kts | 5° |
| 2026-04-26 00:54 | 35.13777 | -80.92786 | 2249 ft | 138 kts | 356° |
| 2026-04-26 00:54 | 35.14709 | -80.92847 | 1869 ft | 139 kts | 353° |
| 2026-04-26 00:55 | 35.15695 | -80.92978 | 1613 ft | 141 kts | 353° |
| 2026-04-26 00:55 | 35.16665 | -80.93110 | 1413 ft | 140 kts | 354° |
| 2026-04-26 00:55 | 35.17633 | -80.93192 | 1224 ft | 140 kts | 356° |
| 2026-04-26 00:55 | 35.18605 | -80.93273 | 1069 ft | 143 kts | 354° |
| 2026-04-26 00:56 | 35.19585 | -80.93362 | 901 ft | 139 kts | 355° |
| 2026-04-26 00:56 | 35.20504 | -80.93442 | 724 ft | 118 kts | 354° |
| 2026-04-26 00:56 | 35.21170 | -80.93504 | 719 ft | 75 kts | 356° |
| 2026-04-26 00:56 | 35.21470 | -80.93555 | 721 ft | 26 kts | 321° |
| 2026-04-26 00:57 | 35.21517 | -80.93613 | 723 ft | 8 kts | 319° |
| 2026-04-26 00:57 | 35.21534 | -80.93632 | 717 ft | 0 kts | 316° |
| 2026-04-26 00:57 | 35.21541 | -80.93641 | 715 ft | 5 kts | 315° |
| 2026-04-26 00:57 | 35.21597 | -80.93674 | 724 ft | 13 kts | 352° |
| 2026-04-26 00:58 | 35.21715 | -80.93686 | 723 ft | 20 kts | 354° |
| 2026-04-26 00:58 | 35.21860 | -80.93698 | 725 ft | 21 kts | 356° |
| 2026-04-26 00:58 | 35.22011 | -80.93711 | 725 ft | 22 kts | 356° |
| 2026-04-26 00:58 | 35.22166 | -80.93725 | 728 ft | 23 kts | 355° |
| 2026-04-26 00:59 | 35.22326 | -80.93738 | 728 ft | 23 kts | 355° |
| 2026-04-26 00:59 | 35.22470 | -80.93750 | 729 ft | 15 kts | 357° |
| 2026-04-26 00:59 | 35.22506 | -80.93811 | 729 ft | 9 kts | 294° |
| 2026-04-26 00:59 | 35.22562 | -80.93842 | 729 ft | 10 kts | 352° |
| 2026-04-26 01:00 | 35.22623 | -80.93891 | 729 ft | 12 kts | 295° |
| 2026-04-26 01:00 | 35.22641 | -80.94004 | 728 ft | 15 kts | 268° |
| 2026-04-26 01:00 | 35.22625 | -80.94123 | 728 ft | 14 kts | 242° |
| 2026-04-26 01:00 | 35.22537 | -80.94171 | 726 ft | 13 kts | 176° |
| 2026-04-26 01:01 | 35.22461 | -80.94160 | 727 ft | 4 kts | 135° |
| 2026-04-26 01:01 | 35.22458 | -80.94145 | 727 ft | 2 kts | 90° |
| 2026-04-26 01:01 | 35.22458 | -80.94125 | 726 ft | 3 kts | 93° |
| 2026-04-26 01:01 | 35.22457 | -80.94112 | 727 ft | 0 kts | 94° |